Time;durP1;ratioP1;P1;durP2;ratioP2;P2;SDS_P1;SDS_P2;PMS_P1;PMS_P2;Temp;Humidity;BMP_temperature;BMP_pressure;BME280_temperature;BME280_humidity;BME280_pressure;Samples;Min_cycle;Max_cycle;Signal;HPM_P1;HPM_P2
2022/06/19 00:00:43;;;;;;;;;;;17.00;99.90;;;;;;5082383;28;19909;-76
2022/06/19 00:03:10;;;;;;;;;;;17.00;99.90;;;;;;5072910;28;19919;-75
2022/06/19 00:05:36;;;;;;;;;;;17.00;99.90;;;;;;5073981;28;20320;-76
2022/06/19 00:08:02;;;;;;;;;;;17.00;99.90;;;;;;5074005;28;19909;-75
2022/06/19 00:10:28;;;;;;;;;;;16.90;99.90;;;;;;5073659;28;20011;-75
2022/06/19 00:12:54;;;;;;;;;;;17.00;99.90;;;;;;5072201;28;20059;-76
2022/06/19 00:15:19;;;;;;;;;;;16.90;99.90;;;;;;5073342;28;20014;-75
2022/06/19 00:17:45;;;;;;;;;;;17.00;99.90;;;;;;5073849;28;20361;-74
2022/06/19 00:20:11;;;;;;;;;;;16.90;99.90;;;;;;5072413;28;20381;-76
2022/06/19 00:22:37;;;;;;;;;;;17.00;99.90;;;;;;5073307;28;20274;-76
2022/06/19 00:25:03;;;;;;;;;;;16.90;99.90;;;;;;5072885;28;19909;-75
2022/06/19 00:27:29;;;;;;;;;;;16.90;99.90;;;;;;5076575;28;19909;-76
2022/06/19 00:29:54;;;;;;;;;;;16.80;99.90;;;;;;5076199;28;19909;-75
2022/06/19 00:32:20;;;;;;;;;;;16.70;99.90;;;;;;5076642;28;19919;-75
2022/06/19 00:34:46;;;;;;;;;;;16.70;99.90;;;;;;5072823;28;20383;-75
2022/06/19 00:37:11;;;;;;;;;;;16.60;99.90;;;;;;5073455;28;19915;-75
2022/06/19 00:39:39;;;;;;;;;;;16.70;99.90;;;;;;5073151;28;19912;-75
2022/06/19 00:42:08;;;;;;;;;;;16.60;99.90;;;;;;5072548;28;19908;-75
2022/06/19 00:44:34;;;;;;;;;;;16.70;99.90;;;;;;5070791;28;20003;-74
2022/06/19 00:47:07;;;;;;;;;;;16.50;99.90;;;;;;5073141;28;19959;-73
2022/06/19 00:49:42;;;;;;;;;;;16.50;99.90;;;;;;5072118;28;20277;-75
2022/06/19 00:52:12;;;;;;;;;;;16.50;99.90;;;;;;5072761;28;19999;-75
2022/06/19 00:54:41;;;;;;;;;;;16.40;99.90;;;;;;5072089;28;19909;-73
2022/06/19 00:57:08;;;;;;;;;;;16.50;99.90;;;;;;5077201;28;19908;-75
2022/06/19 00:59:35;;;;;;;;;;;16.70;99.90;;;;;;5081071;28;19947;-73
2022/06/19 01:02:01;;;;;;;;;;;16.90;99.90;;;;;;5072687;28;19913;-75
2022/06/19 01:04:31;;;;;;;;;;;16.90;99.90;;;;;;5071905;28;19921;-76
2022/06/19 01:06:57;;;;;;;;;;;16.80;99.90;;;;;;5072889;28;19962;-74
2022/06/19 01:09:23;;;;;;;;;;;16.60;99.90;;;;;;5072337;28;19909;-75
2022/06/19 01:11:49;;;;;;;;;;;16.60;99.90;;;;;;5072344;28;20277;-75
2022/06/19 01:14:17;;;;;;;;;;;16.50;99.90;;;;;;5072209;28;19916;-75
2022/06/19 01:16:42;;;;;;;;;;;16.40;99.90;;;;;;5072694;28;20006;-74
2022/06/19 01:19:09;;;;;;;;;;;16.50;99.90;;;;;;5072573;28;19974;-75
2022/06/19 01:21:37;;;;;;;;;;;16.50;99.90;;;;;;5071969;28;19995;-74
2022/06/19 01:24:21;;;;;;;;;;;16.30;99.90;;;;;;5071591;28;19912;-75
2022/06/19 01:26:49;;;;;;;;;;;16.30;99.90;;;;;;5072901;28;20296;-75
2022/06/19 01:29:15;;;;;;;;;;;16.60;99.90;;;;;;5081923;28;19915;-73
2022/06/19 01:31:43;;;;;;;;;;;16.70;99.90;;;;;;5075576;28;19952;-75
2022/06/19 01:34:28;;;;;;;;;;;17.00;99.90;;;;;;5071588;28;19990;-76
2022/06/19 01:36:59;;;;;;;;;;;16.80;99.90;;;;;;5087064;28;19908;-76
2022/06/19 01:39:26;;;;;;;;;;;16.80;99.90;;;;;;5091860;28;19912;-75
2022/06/19 01:41:51;;;;;;;;;;;16.90;99.90;;;;;;5091080;28;19908;-75
2022/06/19 01:44:17;;;;;;;;;;;16.80;99.90;;;;;;5090792;28;20015;-74
2022/06/19 01:46:42;;;;;;;;;;;16.90;99.90;;;;;;5091422;28;19935;-75
2022/06/19 01:49:08;;;;;;;;;;;17.00;99.90;;;;;;5091339;28;20006;-75
2022/06/19 01:51:33;;;;;;;;;;;16.80;99.90;;;;;;5090841;28;19965;-74
2022/06/19 01:54:06;;;;;;;;;;;16.80;99.90;;;;;;5089888;28;19908;-75
2022/06/19 01:56:32;;;;;;;;;;;16.70;99.90;;;;;;5090936;28;19962;-75
2022/06/19 01:59:01;;;;;;;;;;;16.40;99.90;;;;;;5077647;28;19908;-76
2022/06/19 02:01:27;;;;;;;;;;;16.60;99.90;;;;;;5077358;28;19915;-75
2022/06/19 02:03:56;;;;;;;;;;;16.60;99.90;;;;;;5071985;28;19917;-75
2022/06/19 02:06:24;;;;;;;;;;;16.60;99.90;;;;;;5086686;28;19908;-74
2022/06/19 02:08:50;;;;;;;;;;;16.60;99.90;;;;;;5091034;28;19908;-76
2022/06/19 02:11:16;;;;;;;;;;;16.50;99.90;;;;;;5090741;28;19915;-75
2022/06/19 02:13:42;;;;;;;;;;;16.20;99.90;;;;;;5090393;28;20285;-76
2022/06/19 02:16:10;;;;;;;;;;;16.40;99.90;;;;;;5091033;28;19915;-74
2022/06/19 02:18:38;;;;;;;;;;;16.70;99.90;;;;;;5090941;28;19931;-76
2022/06/19 02:21:07;;;;;;;;;;;16.70;99.90;;;;;;5090923;28;20002;-75
2022/06/19 02:23:36;;;;;;;;;;;16.70;99.90;;;;;;5090046;28;20033;-76
2022/06/19 02:26:06;;;;;;;;;;;16.60;99.90;;;;;;5090223;28;20213;-74
2022/06/19 02:28:35;;;;;;;;;;;16.60;99.90;;;;;;5089431;28;20416;-76
2022/06/19 02:31:01;;;;;;;;;;;16.50;99.90;;;;;;5072885;28;19908;-75
2022/06/19 02:33:28;;;;;;;;;;;16.30;99.90;;;;;;5070447;28;20373;-75
2022/06/19 02:35:53;;;;;;;;;;;16.20;99.90;;;;;;5071452;28;19940;-76
2022/06/19 02:38:20;;;;;;;;;;;16.00;99.90;;;;;;5071470;28;20428;-75
2022/06/19 02:41:04;;;;;;;;;;;16.10;99.90;;;;;;5071314;28;19909;-76
2022/06/19 02:43:32;;;;;;;;;;;16.00;99.90;;;;;;5070955;28;20392;-76
2022/06/19 02:45:58;;;;;;;;;;;15.90;99.90;;;;;;5084344;28;19909;-76
2022/06/19 02:48:28;;;;;;;;;;;15.90;99.90;;;;;;5090859;28;19966;-75
2022/06/19 02:50:54;;;;;;;;;;;15.80;99.90;;;;;;5090844;28;19912;-75
2022/06/19 02:53:20;;;;;;;;;;;15.70;99.90;;;;;;5089751;28;19939;-75
2022/06/19 02:55:46;;;;;;;;;;;15.70;99.90;;;;;;5088911;28;19908;-75
2022/06/19 02:58:11;;;;;;;;;;;15.60;99.90;;;;;;5078665;28;19912;-75
2022/06/19 03:00:37;;;;;;;;;;;15.50;99.90;;;;;;5078817;28;19932;-75
2022/06/19 03:03:05;;;;;;;;;;;15.50;99.90;;;;;;5070271;28;19916;-74
2022/06/19 03:05:30;;;;;;;;;;;15.60;99.90;;;;;;5072461;28;19908;-75
2022/06/19 03:07:56;;;;;;;;;;;15.60;99.90;;;;;;5075011;28;19909;-75
2022/06/19 03:10:22;;;;;;;;;;;15.40;99.90;;;;;;5074647;28;19908;-76
2022/06/19 03:12:47;;;;;;;;;;;15.30;99.90;;;;;;5074314;28;19919;-75
2022/06/19 03:15:14;;;;;;;;;;;15.30;99.90;;;;;;5074159;28;20312;-74
2022/06/19 03:17:39;;;;;;;;;;;15.30;99.90;;;;;;5074585;28;19912;-75
2022/06/19 03:20:05;;;;;;;;;;;15.40;99.90;;;;;;5074762;28;20241;-76
2022/06/19 03:22:31;;;;;;;;;;;15.50;99.90;;;;;;5074049;28;19923;-75
2022/06/19 03:24:56;;;;;;;;;;;15.40;99.90;;;;;;5071866;28;20187;-75
2022/06/19 03:27:22;;;;;;;;;;;15.50;99.90;;;;;;5078536;28;20377;-75
2022/06/19 03:29:47;;;;;;;;;;;15.30;99.90;;;;;;5078547;28;19916;-75
2022/06/19 03:32:13;;;;;;;;;;;15.50;99.90;;;;;;5079705;28;20373;-75
2022/06/19 03:34:39;;;;;;;;;;;15.50;99.90;;;;;;5072602;28;19909;-75
2022/06/19 03:37:05;;;;;;;;;;;15.60;99.90;;;;;;5074518;28;20358;-75
2022/06/19 03:39:31;;;;;;;;;;;15.90;99.90;;;;;;5072777;28;19908;-75
2022/06/19 03:41:56;;;;;;;;;;;15.80;99.90;;;;;;5073895;28;19916;-75
2022/06/19 03:44:22;;;;;;;;;;;15.90;99.90;;;;;;5073442;28;20003;-75
2022/06/19 03:46:48;;;;;;;;;;;15.70;99.90;;;;;;5074243;28;19908;-74
2022/06/19 03:49:13;;;;;;;;;;;15.70;99.90;;;;;;5074261;28;19969;-75
2022/06/19 03:51:39;;;;;;;;;;;15.70;99.90;;;;;;5073824;28;20386;-75
2022/06/19 03:54:07;;;;;;;;;;;15.80;99.90;;;;;;5073004;28;19908;-74
2022/06/19 03:56:33;;;;;;;;;;;15.80;99.90;;;;;;5074141;28;19909;-75
2022/06/19 03:58:58;;;;;;;;;;;15.70;99.90;;;;;;5087549;28;20277;-75
2022/06/19 04:01:25;;;;;;;;;;;15.80;99.90;;;;;;5074803;28;19912;-74
2022/06/19 04:03:52;;;;;;;;;;;15.90;99.90;;;;;;5073543;28;20292;-75
2022/06/19 04:06:18;;;;;;;;;;;15.90;99.90;;;;;;5074350;28;19959;-76
2022/06/19 04:08:46;;;;;;;;;;;16.00;99.90;;;;;;5073932;28;19912;-76
2022/06/19 04:11:16;;;;;;;;;;;16.30;99.90;;;;;;5073663;28;19908;-75
2022/06/19 04:13:42;;;;;;;;;;;16.30;99.90;;;;;;5073188;28;19908;-75
2022/06/19 04:16:10;;;;;;;;;;;16.40;99.90;;;;;;5073539;28;19914;-75
2022/06/19 04:18:36;;;;;;;;;;;16.50;99.90;;;;;;5073249;28;19908;-75
2022/06/19 04:21:03;;;;;;;;;;;16.60;99.90;;;;;;5073583;28;19915;-75
2022/06/19 04:23:28;;;;;;;;;;;16.70;99.90;;;;;;5072353;28;19942;-75
2022/06/19 04:25:54;;;;;;;;;;;16.90;99.90;;;;;;5071862;28;20323;-75
2022/06/19 04:28:23;;;;;;;;;;;17.00;99.90;;;;;;5075798;28;19916;-75
2022/06/19 04:30:52;;;;;;;;;;;17.00;99.90;;;;;;5082209;28;19916;-76
2022/06/19 04:33:18;;;;;;;;;;;17.20;99.90;;;;;;5072364;28;19915;-75
2022/06/19 04:35:44;;;;;;;;;;;17.20;99.90;;;;;;5071956;28;19935;-75
2022/06/19 04:38:10;;;;;;;;;;;17.30;99.90;;;;;;5073367;28;19913;-75
2022/06/19 04:40:37;;;;;;;;;;;17.30;99.90;;;;;;5073347;28;20379;-75
2022/06/19 04:43:02;;;;;;;;;;;17.40;99.90;;;;;;5072734;28;19913;-75
2022/06/19 04:45:28;;;;;;;;;;;17.50;99.90;;;;;;5072909;28;19915;-75
2022/06/19 04:47:53;;;;;;;;;;;17.70;99.90;;;;;;5073129;28;19912;-75
2022/06/19 04:50:19;;;;;;;;;;;17.80;99.90;;;;;;5073146;28;19955;-75
2022/06/19 04:52:44;;;;;;;;;;;18.00;99.90;;;;;;5072624;28;19915;-75
2022/06/19 04:55:13;;;;;;;;;;;18.20;99.90;;;;;;5072295;28;20253;-75
2022/06/19 04:57:39;;;;;;;;;;;18.20;99.90;;;;;;5077527;28;20288;-75
2022/06/19 05:00:06;;;;;;;;;;;18.30;99.90;;;;;;5076028;28;19912;-76
2022/06/19 05:02:31;;;;;;;;;;;18.50;99.90;;;;;;5072393;28;20431;-74
2022/06/19 05:04:57;;;;;;;;;;;18.60;99.90;;;;;;5070774;28;19920;-75
2022/06/19 05:07:22;;;;;;;;;;;18.70;99.90;;;;;;5072763;28;20273;-75
2022/06/19 05:09:48;;;;;;;;;;;18.80;99.90;;;;;;5072464;28;19916;-75
2022/06/19 05:12:13;;;;;;;;;;;18.80;99.90;;;;;;5072179;28;20054;-76
2022/06/19 05:14:39;;;;;;;;;;;19.00;99.90;;;;;;5071950;28;19981;-75
2022/06/19 05:17:04;;;;;;;;;;;19.20;99.90;;;;;;5072626;28;20328;-75
2022/06/19 05:19:30;;;;;;;;;;;19.40;99.90;;;;;;5072578;28;19908;-75
2022/06/19 05:21:55;;;;;;;;;;;19.70;99.90;;;;;;5071829;28;20374;-76
2022/06/19 05:24:21;;;;;;;;;;;19.80;99.90;;;;;;5071565;28;19913;-76
2022/06/19 05:26:47;;;;;;;;;;;19.90;99.90;;;;;;5072258;28;19909;-75
2022/06/19 05:29:12;;;;;;;;;;;19.90;99.90;;;;;;5080483;28;19915;-75
2022/06/19 05:31:38;;;;;;;;;;;19.90;99.90;;;;;;5074038;28;20385;-77
2022/06/19 05:34:03;;;;;;;;;;;20.10;99.90;;;;;;5071719;28;19913;-76
2022/06/19 05:36:29;;;;;;;;;;;20.20;99.90;;;;;;5072182;28;19919;-76
2022/06/19 05:38:55;;;;;;;;;;;20.30;99.90;;;;;;5072219;28;19959;-76
2022/06/19 05:41:21;;;;;;;;;;;20.60;99.90;;;;;;5071509;28;19908;-76
2022/06/19 05:43:49;;;;;;;;;;;20.60;99.90;;;;;;5071505;28;20285;-76
2022/06/19 05:46:16;;;;;;;;;;;20.80;99.90;;;;;;5072104;28;20432;-75
2022/06/19 05:48:42;;;;;;;;;;;21.00;99.90;;;;;;5072464;28;19908;-76
2022/06/19 05:51:14;;;;;;;;;;;21.10;99.90;;;;;;5071946;28;19909;-75
2022/06/19 05:53:42;;;;;;;;;;;21.50;99.90;;;;;;5071109;28;19915;-75
2022/06/19 05:56:08;;;;;;;;;;;22.50;99.90;;;;;;5069981;28;19909;-76
2022/06/19 05:58:34;;;;;;;;;;;23.40;99.90;;;;;;5079084;28;20289;-76
2022/06/19 06:01:00;;;;;;;;;;;24.20;99.90;;;;;;5083060;28;19912;-76
2022/06/19 06:03:25;;;;;;;;;;;24.40;99.70;;;;;;5070757;28;20400;-75
2022/06/19 06:05:51;;;;;;;;;;;24.70;99.00;;;;;;5070814;28;19912;-75
2022/06/19 06:08:17;;;;;;;;;;;24.90;97.90;;;;;;5075315;28;19909;-77
2022/06/19 06:10:43;;;;;;;;;;;25.10;96.20;;;;;;5071583;28;19909;-75
2022/06/19 06:13:09;;;;;;;;;;;25.30;96.20;;;;;;5088538;28;20353;-77
2022/06/19 06:15:34;;;;;;;;;;;25.50;95.00;;;;;;5091152;28;20377;-76
2022/06/19 06:18:00;;;;;;;;;;;25.70;95.80;;;;;;5089606;28;19908;-76
2022/06/19 06:20:26;;;;;;;;;;;25.90;95.30;;;;;;5091149;28;20353;-76
2022/06/19 06:22:51;;;;;;;;;;;26.00;94.50;;;;;;5090391;28;19969;-75
2022/06/19 06:25:17;;;;;;;;;;;26.30;94.00;;;;;;5090312;28;19908;-76
2022/06/19 06:27:42;;;;;;;;;;;25.70;94.50;;;;;;5086096;28;19908;-76
2022/06/19 06:30:09;;;;;;;;;;;25.60;95.10;;;;;;5077100;28;19995;-76
2022/06/19 06:32:35;;;;;;;;;;;25.90;95.30;;;;;;5071022;28;19913;-76
2022/06/19 06:35:00;;;;;;;;;;;26.40;93.30;;;;;;5071165;28;19908;-77
2022/06/19 06:37:26;;;;;;;;;;;27.00;92.50;;;;;;5071463;28;19951;-76
2022/06/19 06:39:51;;;;;;;;;;;27.50;92.60;;;;;;5071788;28;19908;-77
2022/06/19 06:42:17;;;;;;;;;;;27.60;91.00;;;;;;5073898;28;20285;-76
2022/06/19 06:44:42;;;;;;;;;;;26.10;91.30;;;;;;5075378;28;19970;-76
2022/06/19 06:47:08;;;;;;;;;;;25.30;93.90;;;;;;5081829;28;20281;-75
2022/06/19 06:49:33;;;;;;;;;;;25.20;94.10;;;;;;5095068;28;20081;-77
2022/06/19 06:51:59;;;;;;;;;;;25.10;95.50;;;;;;5094618;28;19908;-75
2022/06/19 06:54:24;;;;;;;;;;;26.30;93.80;;;;;;5093797;28;19908;-74
2022/06/19 06:56:50;;;;;;;;;;;27.30;91.30;;;;;;5092753;28;19919;-76
2022/06/19 06:59:16;;;;;;;;;;;28.00;90.80;;;;;;5085477;28;20276;-76
2022/06/19 07:01:41;;;;;;;;;;;28.60;85.80;;;;;;5077509;28;19947;-76
2022/06/19 07:04:08;;;;;;;;;;;28.90;84.50;;;;;;5074568;28;19913;-76
2022/06/19 07:06:33;;;;;;;;;;;29.10;81.20;;;;;;5075143;28;20380;-76
2022/06/19 07:09:00;;;;;;;;;;;29.30;81.00;;;;;;5075165;28;19909;-75
2022/06/19 07:11:39;;;;;;;;;;;29.20;84.20;;;;;;5073170;28;19908;-76
2022/06/19 07:14:05;;;;;;;;;;;30.00;82.80;;;;;;5087726;28;19912;-76
2022/06/19 07:16:30;;;;;;;;;;;30.20;79.40;;;;;;5093988;28;19915;-76
2022/06/19 07:18:56;;;;;;;;;;;30.40;77.30;;;;;;5094149;28;19985;-76
2022/06/19 07:21:22;;;;;;;;;;;29.60;78.30;;;;;;5093811;28;19919;-76
2022/06/19 07:23:47;;;;;;;;;;;29.60;80.30;;;;;;5092867;28;19938;-76
2022/06/19 07:26:16;;;;;;;;;;;30.00;75.90;;;;;;5092461;28;19951;-75
2022/06/19 07:28:42;;;;;;;;;;;30.20;75.00;;;;;;5079524;28;19909;-76
2022/06/19 07:31:08;;;;;;;;;;;30.60;77.60;;;;;;5083393;28;20427;-76
2022/06/19 07:33:36;;;;;;;;;;;30.90;75.30;;;;;;5091671;28;19908;-75
2022/06/19 07:36:02;;;;;;;;;;;30.90;76.80;;;;;;5092704;28;19909;-76
2022/06/19 07:38:28;;;;;;;;;;;31.30;77.50;;;;;;5093829;28;20273;-76
2022/06/19 07:40:53;;;;;;;;;;;31.60;71.30;;;;;;5093624;28;19912;-76
2022/06/19 07:43:19;;;;;;;;;;;31.50;72.50;;;;;;5092572;28;19952;-76
2022/06/19 07:45:44;;;;;;;;;;;31.30;72.60;;;;;;5094033;28;19908;-77
2022/06/19 07:50:54;;;;;;;;;;;32.00;74.70;;;;;;5094094;28;19960;-77
2022/06/19 07:53:20;;;;;;;;;;;32.50;73.30;;;;;;5092085;28;20260;-76
2022/06/19 07:55:45;;;;;;;;;;;32.90;70.60;;;;;;5093350;28;20307;-77
2022/06/19 07:58:11;;;;;;;;;;;33.10;69.10;;;;;;5084123;28;20007;-76
2022/06/19 08:00:37;;;;;;;;;;;32.70;70.00;;;;;;5076775;28;19912;-75
2022/06/19 08:03:03;;;;;;;;;;;32.60;71.20;;;;;;5073323;28;19909;-76
2022/06/19 08:05:31;;;;;;;;;;;32.40;69.90;;;;;;5073530;28;19914;-77
2022/06/19 08:07:59;;;;;;;;;;;32.70;68.20;;;;;;5073929;28;19916;-77
2022/06/19 08:10:27;;;;;;;;;;;32.50;69.40;;;;;;5073616;28;19909;-77
2022/06/19 08:12:53;;;;;;;;;;;32.60;67.00;;;;;;5073416;28;19912;-76
2022/06/19 08:15:19;;;;;;;;;;;32.70;70.40;;;;;;5073379;28;19909;-76
2022/06/19 08:17:45;;;;;;;;;;;33.10;69.20;;;;;;5074024;28;19991;-76
2022/06/19 08:20:12;;;;;;;;;;;34.10;70.30;;;;;;5074219;28;19915;-76
2022/06/19 08:22:38;;;;;;;;;;;34.10;66.50;;;;;;5073061;28;19924;-77
2022/06/19 08:25:04;;;;;;;;;;;34.00;66.20;;;;;;5072468;28;19913;-77
2022/06/19 08:27:29;;;;;;;;;;;34.20;66.90;;;;;;5082676;28;19909;-76
2022/06/19 08:29:55;;;;;;;;;;;34.40;68.70;;;;;;5086531;28;19908;-76
2022/06/19 08:32:20;;;;;;;;;;;34.40;65.50;;;;;;5074957;28;20376;-77
2022/06/19 08:34:46;;;;;;;;;;;34.00;66.50;;;;;;5073186;28;20357;-76
2022/06/19 08:37:12;;;;;;;;;;;34.50;66.20;;;;;;5073618;28;20162;-76
2022/06/19 08:39:37;;;;;;;;;;;34.90;64.20;;;;;;5073211;28;20284;-77
2022/06/19 08:42:06;;;;;;;;;;;35.00;65.80;;;;;;5076265;28;19908;-76
2022/06/19 08:44:38;;;;;;;;;;;34.50;65.40;;;;;;5072650;28;19981;-76
2022/06/19 08:47:21;;;;;;;;;;;35.20;64.30;;;;;;5073210;28;19909;-75
2022/06/19 08:49:53;;;;;;;;;;;35.60;64.50;;;;;;5071659;28;19908;-76
2022/06/19 08:52:37;;;;;;;;;;;35.90;64.80;;;;;;5072482;28;20277;-76
2022/06/19 08:55:21;;;;;;;;;;;35.40;58.80;;;;;;5071704;28;19924;-77
2022/06/19 08:57:56;;;;;;;;;;;34.90;56.70;;;;;;5077391;28;20384;-77
2022/06/19 09:00:26;;;;;;;;;;;35.40;58.60;;;;;;5078897;28;19957;-75
2022/06/19 09:02:51;;;;;;;;;;;35.20;54.30;;;;;;5078554;28;19916;-76
2022/06/19 09:05:44;;;;;;;;;;;35.30;56.00;;;;;;5085036;28;19919;-76
2022/06/19 09:08:29;;;;;;;;;;;35.60;57.10;;;;;;5065285;28;19908;-76
2022/06/19 09:11:04;;;;;;;;;;;35.60;54.90;;;;;;5084689;28;20401;-77
2022/06/19 09:13:42;;;;;;;;;;;35.20;54.30;;;;;;5071617;28;19909;-76
2022/06/19 09:16:17;;;;;;;;;;;35.10;54.20;;;;;;5086512;28;20372;-75
2022/06/19 09:19:03;;;;;;;;;;;34.50;53.80;;;;;;5090272;28;19908;-76
2022/06/19 09:21:48;;;;;;;;;;;34.70;55.00;;;;;;5090808;28;20273;-75
2022/06/19 09:24:33;;;;;;;;;;;35.00;54.40;;;;;;5090645;28;19916;-76
2022/06/19 09:26:59;;;;;;;;;;;35.50;54.00;;;;;;5089872;28;19920;-76
2022/06/19 09:29:28;;;;;;;;;;;35.50;51.50;;;;;;5083159;28;19918;-76
2022/06/19 09:32:12;;;;;;;;;;;35.10;52.10;;;;;;5071768;28;19916;-75
2022/06/19 09:34:40;;;;;;;;;;;35.30;51.80;;;;;;5070554;28;19962;-75
2022/06/19 09:37:06;;;;;;;;;;;35.00;51.10;;;;;;5072137;28;20190;-75
2022/06/19 09:39:47;;;;;;;;;;;35.00;52.70;;;;;;5072103;28;19908;-75
2022/06/19 09:42:15;;;;;;;;;;;35.00;51.10;;;;;;5084401;28;19908;-76
2022/06/19 09:44:41;;;;;;;;;;;34.60;51.30;;;;;;5090854;28;19919;-75
2022/06/19 09:47:18;;;;;;;;;;;34.80;53.00;;;;;;5091215;28;19908;-75
2022/06/19 09:49:43;;;;;;;;;;;35.20;52.40;;;;;;5091344;28;19909;-75
2022/06/19 09:52:20;;;;;;;;;;;35.10;52.00;;;;;;5090824;28;19915;-76
2022/06/19 09:54:55;;;;;;;;;;;35.40;51.70;;;;;;5090532;28;19999;-76
2022/06/19 09:57:31;;;;;;;;;;;36.50;53.90;;;;;;5085968;28;19908;-76
2022/06/19 10:00:03;;;;;;;;;;;36.40;49.10;;;;;;5079048;28;19999;-75
2022/06/19 10:02:33;;;;;;;;;;;35.70;49.40;;;;;;5072297;28;20411;-76
2022/06/19 10:05:18;;;;;;;;;;;35.60;51.90;;;;;;5070952;28;19913;-76
2022/06/19 10:07:46;;;;;;;;;;;36.90;55.30;;;;;;5074950;28;19999;-76
2022/06/19 10:10:30;;;;;;;;;;;36.50;49.50;;;;;;5090749;28;19915;-76
2022/06/19 10:12:56;;;;;;;;;;;36.30;51.70;;;;;;5090379;28;19915;-76
2022/06/19 10:15:32;;;;;;;;;;;35.50;49.60;;;;;;5089699;28;19912;-76
2022/06/19 10:18:07;;;;;;;;;;;35.40;48.10;;;;;;5090947;28;19925;-76
2022/06/19 10:20:43;;;;;;;;;;;35.70;48.00;;;;;;5090975;28;20353;-76
2022/06/19 10:23:14;;;;;;;;;;;35.60;50.50;;;;;;5089561;28;20376;-75
2022/06/19 10:25:54;;;;;;;;;;;35.80;50.00;;;;;;5090856;28;20265;-75
2022/06/19 10:28:46;;;;;;;;;;;36.10;50.50;;;;;;5086705;28;19909;-76
2022/06/19 10:31:11;;;;;;;;;;;35.90;47.70;;;;;;5079355;28;19908;-75
2022/06/19 10:33:43;;;;;;;;;;;36.30;51.70;;;;;;5070464;28;19916;-76
2022/06/19 10:36:18;;;;;;;;;;;36.40;50.00;;;;;;5076134;28;19908;-75
2022/06/19 10:38:44;;;;;;;;;;;36.10;48.90;;;;;;5075435;28;19934;-75
2022/06/19 10:42:00;;;;;;;;;;;35.80;46.60;;;;;;5070992;28;20011;-75
2022/06/19 10:44:10;;;;;;;;;;;35.70;47.50;;;;;;5070590;28;19986;-75
2022/06/19 10:46:36;;;;;;;;;;;35.70;47.30;;;;;;5071054;28;19940;-75
2022/06/19 10:49:14;;;;;;;;;;;36.10;46.90;;;;;;5071121;28;19908;-75
2022/06/19 10:51:42;;;;;;;;;;;36.10;48.30;;;;;;5069340;28;19908;-75
2022/06/19 10:54:26;;;;;;;;;;;35.80;47.20;;;;;;5070646;28;20344;-75
2022/06/19 10:56:52;;;;;;;;;;;36.10;47.60;;;;;;5083538;28;19915;-75
2022/06/19 10:59:17;;;;;;;;;;;36.70;49.40;;;;;;5083397;28;19908;-76
2022/06/19 11:04:34;;;;;;;;;;;36.80;46.10;;;;;;5070504;28;20289;-78
2022/06/19 11:07:11;;;;;;;;;;;36.80;46.00;;;;;;5071297;28;20396;-76
2022/06/19 11:09:52;;;;;;;;;;;37.10;47.00;;;;;;5071052;28;20007;-76
2022/06/19 11:12:17;;;;;;;;;;;37.50;47.10;;;;;;5083636;28;19931;-77
2022/06/19 11:14:44;;;;;;;;;;;36.70;45.00;;;;;;5087070;28;20656;-76
2022/06/19 11:17:14;;;;;;;;;;;37.10;44.90;;;;;;5086752;28;19912;-76
2022/06/19 11:19:41;;;;;;;;;;;36.90;45.60;;;;;;5077001;28;20340;-76
2022/06/19 11:22:17;;;;;;;;;;;36.90;47.00;;;;;;5071322;28;19938;-76
2022/06/19 11:24:43;;;;;;;;;;;36.70;46.00;;;;;;5070042;28;19916;-76
2022/06/19 11:27:13;;;;;;;;;;;36.60;43.40;;;;;;5075509;28;19931;-76
2022/06/19 11:29:42;;;;;;;;;;;36.50;46.30;;;;;;5087450;28;20376;-75
2022/06/19 11:32:09;;;;;;;;;;;36.90;45.60;;;;;;5079726;28;19966;-76
2022/06/19 11:34:44;;;;;;;;;;;36.20;46.30;;;;;;5072316;28;19962;-76
2022/06/19 11:37:28;;;;;;;;;;;36.60;45.50;;;;;;5073371;28;19912;-76
2022/06/19 11:39:59;;;;;;;;;;;36.70;46.90;;;;;;5074513;28;19912;-76
2022/06/19 11:42:31;;;;;;;;;;;36.70;45.10;;;;;;5073756;28;20029;-76
2022/06/19 11:44:56;;;;;;;;;;;36.50;45.20;;;;;;5074888;28;19920;-75
2022/06/19 11:47:26;;;;;;;;;;;36.50;45.30;;;;;;5080811;28;19919;-76
2022/06/19 11:50:05;;;;;;;;;;;36.80;44.30;;;;;;5078814;28;19912;-76
2022/06/19 11:52:31;;;;;;;;;;;37.20;46.20;;;;;;5087916;28;20327;-76
2022/06/19 11:54:56;;;;;;;;;;;37.00;47.50;;;;;;5092298;28;19908;-76
2022/06/19 11:57:30;;;;;;;;;;;37.00;43.80;;;;;;5073884;28;19908;-76
2022/06/19 11:59:57;;;;;;;;;;;37.00;44.20;;;;;;5072882;28;20538;-75
2022/06/19 12:02:34;;;;;;;;;;;36.70;45.20;;;;;;5073580;28;19908;-76
2022/06/19 12:05:02;;;;;;;;;;;37.20;45.80;;;;;;5073147;28;19916;-75
2022/06/19 12:07:34;;;;;;;;;;;36.70;45.50;;;;;;5074061;28;19912;-76
2022/06/19 12:10:05;;;;;;;;;;;36.70;45.00;;;;;;5074082;28;19992;-76
2022/06/19 12:12:32;;;;;;;;;;;37.30;47.00;;;;;;5073231;28;19934;-76
2022/06/19 12:15:12;;;;;;;;;;;37.20;43.80;;;;;;5074984;28;19909;-75
2022/06/19 12:17:40;;;;;;;;;;;36.90;44.60;;;;;;5079240;28;19971;-75
2022/06/19 12:20:05;;;;;;;;;;;36.90;46.00;;;;;;5074021;28;20003;-76
2022/06/19 12:22:46;;;;;;;;;;;37.00;43.90;;;;;;5072991;28;20002;-77
2022/06/19 12:25:25;;;;;;;;;;;36.80;43.30;;;;;;5086446;28;19912;-76
2022/06/19 12:28:00;;;;;;;;;;;36.60;43.40;;;;;;5092864;28;19908;-76
2022/06/19 12:30:30;;;;;;;;;;;38.10;44.60;;;;;;5093029;28;19912;-76
2022/06/19 12:32:56;;;;;;;;;;;38.80;44.00;;;;;;5092360;28;19961;-76
2022/06/19 12:35:29;;;;;;;;;;;39.60;41.30;;;;;;5075700;28;20014;-77
2022/06/19 12:37:54;;;;;;;;;;;40.70;39.80;;;;;;5072980;28;19912;-76
2022/06/19 12:40:22;;;;;;;;;;;41.10;40.40;;;;;;5073440;28;19970;-76
2022/06/19 12:43:27;;;;;;;;;;;40.50;38.50;;;;;;5071275;28;20014;-77
2022/06/19 12:45:54;;;;;;;;;;;41.30;38.10;;;;;;5027188;28;19913;-75
2022/06/19 12:48:29;;;;;;;;;;;40.90;38.10;;;;;;5022406;28;19909;-75
2022/06/19 12:50:57;;;;;;;;;;;41.40;36.50;;;;;;5055705;28;19916;-76
2022/06/19 12:53:25;;;;;;;;;;;42.10;36.20;;;;;;5080382;28;20422;-76
2022/06/19 12:55:54;;;;;;;;;;;42.10;37.10;;;;;;5076421;28;20345;-77
2022/06/19 12:58:26;;;;;;;;;;;42.80;36.60;;;;;;5088085;28;20357;-76
2022/06/19 13:01:08;;;;;;;;;;;41.50;34.90;;;;;;5075055;28;19912;-76
2022/06/19 13:03:56;;;;;;;;;;;40.90;34.70;;;;;;5091056;28;19916;-76
2022/06/19 13:06:41;;;;;;;;;;;41.40;36.90;;;;;;5092137;28;19954;-76
2022/06/19 13:09:25;;;;;;;;;;;42.50;34.90;;;;;;5072919;28;20373;-76
2022/06/19 13:12:08;;;;;;;;;;;41.20;36.00;;;;;;5079165;28;20301;-76
2022/06/19 13:14:34;;;;;;;;;;;42.00;36.10;;;;;;5072466;28;19919;-76
2022/06/19 13:17:06;;;;;;;;;;;41.70;36.00;;;;;;5082968;28;20288;-76
2022/06/19 13:19:51;;;;;;;;;;;41.10;35.00;;;;;;5082499;28;19916;-77
2022/06/19 13:22:26;;;;;;;;;;;41.40;36.30;;;;;;5071984;28;19946;-75
2022/06/19 13:25:01;;;;;;;;;;;42.40;39.10;;;;;;5091434;28;19912;-75
2022/06/19 13:28:03;;;;;;;;;;;41.50;36.90;;;;;;5091772;28;19955;-75
2022/06/19 13:30:34;;;;;;;;;;;40.90;36.30;;;;;;5029831;28;19909;-76
2022/06/19 13:33:05;;;;;;;;;;;40.50;35.00;;;;;;5064716;28;19908;-76
2022/06/19 13:35:31;;;;;;;;;;;41.40;35.10;;;;;;5070642;28;19909;-75
2022/06/19 13:38:16;;;;;;;;;;;41.20;35.70;;;;;;5072262;28;20324;-77
2022/06/19 13:40:47;;;;;;;;;;;42.20;36.10;;;;;;5086788;28;20019;-77
2022/06/19 13:43:31;;;;;;;;;;;42.30;35.30;;;;;;5090607;28;19915;-77
2022/06/19 13:45:57;;;;;;;;;;;41.90;36.20;;;;;;5089568;28;19909;-77
2022/06/19 13:48:22;;;;;;;;;;;42.00;36.40;;;;;;5079681;28;19915;-77
2022/06/19 13:50:51;;;;;;;;;;;42.20;36.50;;;;;;5071153;28;19916;-77
2022/06/19 13:53:17;;;;;;;;;;;42.20;35.80;;;;;;5070443;28;19999;-77
2022/06/19 13:55:48;;;;;;;;;;;42.40;37.10;;;;;;5072200;28;20369;-77
2022/06/19 13:58:43;;;;;;;;;;;41.70;36.10;;;;;;5071937;28;19966;-76
2022/06/19 14:01:21;;;;;;;;;;;41.00;34.30;;;;;;5073600;28;19912;-77
2022/06/19 14:06:33;;;;;;;;;;;41.40;35.80;;;;;;5091462;28;20046;-76
2022/06/19 14:09:11;;;;;;;;;;;41.70;38.00;;;;;;5091402;28;19908;-77
2022/06/19 14:14:25;;;;;;;;;;;41.40;36.80;;;;;;5091106;28;19961;-76
2022/06/19 14:16:55;;;;;;;;;;;41.20;35.80;;;;;;5081451;28;19916;-77
2022/06/19 14:19:41;;;;;;;;;;;41.40;35.20;;;;;;5077720;28;19916;-77
2022/06/19 14:22:25;;;;;;;;;;;41.30;37.10;;;;;;5071185;28;20011;-77
2022/06/19 14:24:51;;;;;;;;;;;41.30;36.80;;;;;;5085388;28;20280;-77
2022/06/19 14:27:52;;;;;;;;;;;41.10;37.50;;;;;;5090757;28;19908;-76
2022/06/19 14:30:18;;;;;;;;;;;41.30;35.90;;;;;;5027613;28;19909;-76
2022/06/19 14:32:44;;;;;;;;;;;40.70;36.00;;;;;;5074865;28;19909;-76
2022/06/19 14:35:09;;;;;;;;;;;40.90;36.80;;;;;;5087491;28;20258;-75
2022/06/19 14:37:50;;;;;;;;;;;41.30;37.00;;;;;;5088461;28;19908;-76
2022/06/19 14:40:19;;;;;;;;;;;40.80;37.30;;;;;;5088309;28;19912;-76